Mia-s — V2EI7 — position and weather

sailwx.info

Track history (hours):
 
Tides and Currents Weather Stations Pressure Air Temp Water Temp Dewpoint Dewpoint Depression Visibility Wind Speed Wind Dir Waves Ship Positions

Mia-s

Last reported at 2016-Sep-10 00:31 UTC. Time now 2016-Sep-26 13:55 UTC.
Position N 01°17' E 103°58'.
Warning: this ship's position is 16 days out of date.

Length 190 m; draft 6.5 m.

Type: Cargo ship. MMSI: 305442000.

Date/timePositionNaut miles runAvg speedWind from/ knotsBaromVisibWave heightAir tempDewpointWater temp
2016-Sep-10 00:31N 01°17' E 103°58'1 0.0
2016-Sep-09 11:25N 01°17' E 103°59'6 6.1
2016-Sep-09 10:25N 01°21' E 104°03'1 0.0
2016-Sep-08 01:23N 01°22' E 104°03'0 0.1
2016-Sep-08 00:26N 01°22' E 104°03'3 2.7
2016-Sep-07 23:31N 01°20' E 104°04'7 6.0
2016-Sep-07 22:18N 01°16' E 103°58'1 1.3
2016-Sep-07 21:32N 01°17' E 103°58'0 0.1
2016-Sep-07 20:29N 01°17' E 103°58'0 0.0
2016-Sep-07 14:14N 01°17' E 103°58'0 0.0
2016-Sep-07 13:17N 01°17' E 103°58'0 0.0
2016-Sep-07 12:29N 01°17' E 103°58'0 0.1
2016-Sep-07 11:17N 01°17' E 103°58'0 0.0
2016-Sep-07 10:26N 01°17' E 103°58'0 0.0
2016-Sep-07 09:14N 01°17' E 103°58'0 0.1
2016-Sep-07 08:32N 01°17' E 103°58'0 0.0
2016-Sep-07 07:05N 01°17' E 103°58'0 0.1
2016-Sep-07 06:29N 01°17' E 103°58'0 0.0
2016-Sep-07 04:29N 01°17' E 103°58'0 0.0
2016-Sep-07 03:32N 01°17' E 103°58'0 0.0
2016-Sep-07 02:32N 01°17' E 103°58'0 0.0
2016-Sep-06 23:23N 01°17' E 103°58'0 0.0
2016-Sep-06 22:20N 01°17' E 103°58'0 0.1
2016-Sep-06 21:20N 01°17' E 103°58'0 0.0
2016-Sep-06 20:29N 01°17' E 103°58'0 0.0
2016-Sep-06 19:32N 01°17' E 103°58'0 0.0
2016-Sep-06 18:26N 01°17' E 103°58'0 0.1
2016-Sep-06 17:32N 01°17' E 103°58'0 0.0
2016-Sep-06 15:14N 01°17' E 103°58'0 0.0
2016-Sep-06 14:20N 01°17' E 103°58'0 0.1
2016-Sep-06 12:29N 01°17' E 103°58'0 0.0
2016-Sep-06 11:26N 01°17' E 103°58'0 0.0
2016-Sep-06 08:26N 01°17' E 103°58'0 0.0
2016-Sep-06 07:23N 01°17' E 103°58'0 0.0
2016-Sep-06 04:17N 01°17' E 103°58'0 0.0
2016-Sep-06 03:29N 01°17' E 103°58'0 0.0
2016-Sep-06 01:23N 01°17' E 103°58'0 0.0
2016-Sep-05 22:05N 01°17' E 103°58'0 0.0
2016-Sep-05 21:29N 01°17' E 103°58'0 0.0
2016-Sep-05 20:23N 01°17' E 103°58'0 0.0
2016-Sep-05 19:23N 01°17' E 103°58'0 0.1
2016-Sep-05 18:26N 01°17' E 103°58'0 0.0
2016-Sep-05 17:23N 01°17' E 103°58'0 0.0
2016-Sep-05 13:29N 01°17' E 103°58'0 0.1
2016-Sep-05 12:26N 01°17' E 103°58'0 0.0
2016-Sep-05 11:29N 01°17' E 103°58'0 0.0
2016-Sep-05 10:29N 01°17' E 103°58'0 0.0
2016-Sep-05 09:29N 01°17' E 103°58'0 0.0
2016-Sep-05 08:29N 01°17' E 103°58'0 0.0
2016-Sep-05 06:11N 01°17' E 103°58'0 0.0
2016-Sep-05 04:17N 01°17' E 103°58'0 0.0
2016-Sep-05 03:23N 01°17' E 103°58'0 0.1
2016-Sep-05 02:32N 01°17' E 103°58'0 0.0
2016-Sep-05 01:29N 01°17' E 103°58'0 0.1
2016-Sep-05 00:23N 01°17' E 103°58'0 0.0
2016-Sep-04 23:26N 01°17' E 103°58'0 0.0
2016-Sep-04 21:17N 01°17' E 103°58'0 0.0
2016-Sep-04 20:29N 01°17' E 103°58'0 0.1
2016-Sep-04 19:29N 01°17' E 103°58'0 0.1
2016-Sep-04 17:20N 01°17' E 103°58'0 0.0
2016-Sep-04 16:23N 01°17' E 103°58'0 0.0
2016-Sep-04 12:29N 01°17' E 103°58'0 0.1
2016-Sep-04 11:23N 01°17' E 103°58'0 0.1
2016-Sep-04 10:29N 01°17' E 103°58'0 0.0
2016-Sep-04 09:17N 01°17' E 103°58'0 0.1
2016-Sep-04 07:32N 01°17' E 103°58'0 0.1
2016-Sep-04 04:29N 01°17' E 103°58'0 0.0
2016-Sep-04 03:17N 01°17' E 103°58'0 0.1
2016-Sep-04 01:26N 01°17' E 103°58'0 0.1
2016-Sep-03 23:29N 01°17' E 103°58'0 0.0
2016-Sep-03 22:32N 01°17' E 103°58'0 0.0
2016-Sep-03 21:23N 01°17' E 103°58'0 0.0
2016-Sep-03 20:05N 01°17' E 103°58'0 0.1
2016-Sep-03 19:29N 01°17' E 103°58'0 0.1
2016-Sep-03 16:20N 01°17' E 103°58'0 0.0
2016-Sep-03 15:11N 01°17' E 103°58'0 0.0
2016-Sep-03 13:26N 01°17' E 103°58'0 0.1
2016-Sep-03 10:32N 01°17' E 103°58'0 0.1
2016-Sep-03 09:29N 01°17' E 103°58'0 0.0
2016-Sep-03 08:29N 01°17' E 103°58'0 0.0
2016-Sep-03 07:32N 01°17' E 103°58'0 0.0
2016-Sep-03 06:17N 01°17' E 103°58'0 0.0
2016-Sep-03 05:29N 01°17' E 103°58'0 0.0
2016-Sep-03 04:32N 01°17' E 103°58'0 0.0
2016-Sep-03 01:32N 01°17' E 103°58'0 0.0
2016-Sep-03 00:32N 01°17' E 103°58'0 0.0
2016-Sep-02 23:23N 01°17' E 103°58'0 0.0
2016-Sep-02 21:26N 01°17' E 103°58'0 0.0
2016-Sep-02 20:29N 01°17' E 103°58'0 0.0
2016-Sep-02 19:20N 01°17' E 103°58'0 0.1
2016-Sep-02 18:32N 01°17' E 103°58'0 0.1
2016-Sep-02 17:29N 01°17' E 103°58'0 0.1
2016-Sep-02 16:32N 01°17' E 103°58'0 0.0
2016-Sep-02 14:23N 01°17' E 103°58'0 0.0
2016-Sep-02 13:29N 01°17' E 103°58'0 0.1
2016-Sep-02 12:14N 01°17' E 103°58'0 0.1
2016-Sep-02 10:29N 01°17' E 103°58'0 0.0
2016-Sep-02 09:29N 01°17' E 103°58'0 0.0
2016-Sep-02 08:32N 01°17' E 103°58'0 0.0
2016-Sep-02 07:23N 01°17' E 103°58'0 0.0
2016-Sep-02 06:32N 01°17' E 103°58'0 0.0
2016-Sep-02 03:23N 01°17' E 103°58'0 0.2
2016-Sep-02 02:29N 01°17' E 103°58'5 5.6
2016-Sep-02 01:33N 01°17' E 104°03'4 0.7
2016-Sep-01 20:28N 01°20' E 104°05'0 0.0
2016-Sep-01 19:10N 01°20' E 104°05'0 0.0
2016-Sep-01 18:28N 01°20' E 104°05'0 0.0
2016-Aug-31 23:16N 01°20' E 104°05'0 0.0
2016-Aug-31 20:16N 01°20' E 104°05'0 0.0
2016-Aug-31 17:22N 01°20' E 104°05'0 0.0
2016-Aug-31 12:13N 01°20' E 104°05'0 0.0
2016-Aug-31 11:25N 01°20' E 104°05'0 0.0
2016-Aug-31 10:28N 01°20' E 104°05'0 0.0
2016-Aug-31 09:16N 01°20' E 104°05'0 0.0
2016-Aug-31 08:22N 01°20' E 104°05'0 0.0
2016-Aug-31 06:31N 01°20' E 104°05'0 0.0
2016-Aug-31 03:28N 01°20' E 104°05'  
Track history (hours):
 
Tides and Currents Weather Stations Pressure Air Temp Water Temp Dewpoint Dewpoint Depression Visibility Wind Speed Wind Dir Waves Ship Positions

Mia-s

Last reported at 2016-Sep-10 00:31 UTC. Time now 2016-Sep-26 13:55 UTC.
Position N 01°17' E 103°58'.
Warning: this ship's position is 16 days out of date.

Length 190 m; draft 6.5 m.

Type: Cargo ship. MMSI: 305442000.

Date/timePositionNaut miles runAvg speedWind from/ knotsBaromVisibWave heightAir tempDewpointWater temp
2016-Sep-10 00:31N 01°17' E 103°58'1 0.0
2016-Sep-09 11:25N 01°17' E 103°59'6 6.1
2016-Sep-09 10:25N 01°21' E 104°03'1 0.0
2016-Sep-08 01:23N 01°22' E 104°03'0 0.1
2016-Sep-08 00:26N 01°22' E 104°03'3 2.7
2016-Sep-07 23:31N 01°20' E 104°04'7 6.0
2016-Sep-07 22:18N 01°16' E 103°58'1 1.3
2016-Sep-07 21:32N 01°17' E 103°58'0 0.1
2016-Sep-07 20:29N 01°17' E 103°58'0 0.0
2016-Sep-07 14:14N 01°17' E 103°58'0 0.0
2016-Sep-07 13:17N 01°17' E 103°58'0 0.0
2016-Sep-07 12:29N 01°17' E 103°58'0 0.1
2016-Sep-07 11:17N 01°17' E 103°58'0 0.0
2016-Sep-07 10:26N 01°17' E 103°58'0 0.0
2016-Sep-07 09:14N 01°17' E 103°58'0 0.1
2016-Sep-07 08:32N 01°17' E 103°58'0 0.0
2016-Sep-07 07:05N 01°17' E 103°58'0 0.1
2016-Sep-07 06:29N 01°17' E 103°58'0 0.0
2016-Sep-07 04:29N 01°17' E 103°58'0 0.0
2016-Sep-07 03:32N 01°17' E 103°58'0 0.0
2016-Sep-07 02:32N 01°17' E 103°58'0 0.0
2016-Sep-06 23:23N 01°17' E 103°58'0 0.0
2016-Sep-06 22:20N 01°17' E 103°58'0 0.1
2016-Sep-06 21:20N 01°17' E 103°58'0 0.0
2016-Sep-06 20:29N 01°17' E 103°58'0 0.0
2016-Sep-06 19:32N 01°17' E 103°58'0 0.0
2016-Sep-06 18:26N 01°17' E 103°58'0 0.1
2016-Sep-06 17:32N 01°17' E 103°58'0 0.0
2016-Sep-06 15:14N 01°17' E 103°58'0 0.0
2016-Sep-06 14:20N 01°17' E 103°58'0 0.1
2016-Sep-06 12:29N 01°17' E 103°58'0 0.0
2016-Sep-06 11:26N 01°17' E 103°58'0 0.0
2016-Sep-06 08:26N 01°17' E 103°58'0 0.0
2016-Sep-06 07:23N 01°17' E 103°58'0 0.0
2016-Sep-06 04:17N 01°17' E 103°58'0 0.0
2016-Sep-06 03:29N 01°17' E 103°58'0 0.0
2016-Sep-06 01:23N 01°17' E 103°58'0 0.0
2016-Sep-05 22:05N 01°17' E 103°58'0 0.0
2016-Sep-05 21:29N 01°17' E 103°58'0 0.0
2016-Sep-05 20:23N 01°17' E 103°58'0 0.0
2016-Sep-05 19:23N 01°17' E 103°58'0 0.1
2016-Sep-05 18:26N 01°17' E 103°58'0 0.0
2016-Sep-05 17:23N 01°17' E 103°58'0 0.0
2016-Sep-05 13:29N 01°17' E 103°58'0 0.1
2016-Sep-05 12:26N 01°17' E 103°58'0 0.0
2016-Sep-05 11:29N 01°17' E 103°58'0 0.0
2016-Sep-05 10:29N 01°17' E 103°58'0 0.0
2016-Sep-05 09:29N 01°17' E 103°58'0 0.0
2016-Sep-05 08:29N 01°17' E 103°58'0 0.0
2016-Sep-05 06:11N 01°17' E 103°58'0 0.0
2016-Sep-05 04:17N 01°17' E 103°58'0 0.0
2016-Sep-05 03:23N 01°17' E 103°58'0 0.1
2016-Sep-05 02:32N 01°17' E 103°58'0 0.0
2016-Sep-05 01:29N 01°17' E 103°58'0 0.1
2016-Sep-05 00:23N 01°17' E 103°58'0 0.0
2016-Sep-04 23:26N 01°17' E 103°58'0 0.0
2016-Sep-04 21:17N 01°17' E 103°58'0 0.0
2016-Sep-04 20:29N 01°17' E 103°58'0 0.1
2016-Sep-04 19:29N 01°17' E 103°58'0 0.1
2016-Sep-04 17:20N 01°17' E 103°58'0 0.0
2016-Sep-04 16:23N 01°17' E 103°58'0 0.0
2016-Sep-04 12:29N 01°17' E 103°58'0 0.1
2016-Sep-04 11:23N 01°17' E 103°58'0 0.1
2016-Sep-04 10:29N 01°17' E 103°58'0 0.0
2016-Sep-04 09:17N 01°17' E 103°58'0 0.1
2016-Sep-04 07:32N 01°17' E 103°58'0 0.1
2016-Sep-04 04:29N 01°17' E 103°58'0 0.0
2016-Sep-04 03:17N 01°17' E 103°58'0 0.1
2016-Sep-04 01:26N 01°17' E 103°58'0 0.1
2016-Sep-03 23:29N 01°17' E 103°58'0 0.0
2016-Sep-03 22:32N 01°17' E 103°58'0 0.0
2016-Sep-03 21:23N 01°17' E 103°58'0 0.0
2016-Sep-03 20:05N 01°17' E 103°58'0 0.1
2016-Sep-03 19:29N 01°17' E 103°58'0 0.1
2016-Sep-03 16:20N 01°17' E 103°58'0 0.0
2016-Sep-03 15:11N 01°17' E 103°58'0 0.0
2016-Sep-03 13:26N 01°17' E 103°58'0 0.1
2016-Sep-03 10:32N 01°17' E 103°58'0 0.1
2016-Sep-03 09:29N 01°17' E 103°58'0 0.0
2016-Sep-03 08:29N 01°17' E 103°58'0 0.0
2016-Sep-03 07:32N 01°17' E 103°58'0 0.0
2016-Sep-03 06:17N 01°17' E 103°58'0 0.0
2016-Sep-03 05:29N 01°17' E 103°58'0 0.0
2016-Sep-03 04:32N 01°17' E 103°58'0 0.0
2016-Sep-03 01:32N 01°17' E 103°58'0 0.0
2016-Sep-03 00:32N 01°17' E 103°58'0 0.0
2016-Sep-02 23:23N 01°17' E 103°58'0 0.0
2016-Sep-02 21:26N 01°17' E 103°58'0 0.0
2016-Sep-02 20:29N 01°17' E 103°58'0 0.0
2016-Sep-02 19:20N 01°17' E 103°58'0 0.1
2016-Sep-02 18:32N 01°17' E 103°58'0 0.1
2016-Sep-02 17:29N 01°17' E 103°58'0 0.1
2016-Sep-02 16:32N 01°17' E 103°58'0 0.0
2016-Sep-02 14:23N 01°17' E 103°58'0 0.0
2016-Sep-02 13:29N 01°17' E 103°58'0 0.1
2016-Sep-02 12:14N 01°17' E 103°58'0 0.1
2016-Sep-02 10:29N 01°17' E 103°58'0 0.0
2016-Sep-02 09:29N 01°17' E 103°58'0 0.0
2016-Sep-02 08:32N 01°17' E 103°58'0 0.0
2016-Sep-02 07:23N 01°17' E 103°58'0 0.0
2016-Sep-02 06:32N 01°17' E 103°58'0 0.0
2016-Sep-02 03:23N 01°17' E 103°58'0 0.2
2016-Sep-02 02:29N 01°17' E 103°58'5 5.6
2016-Sep-02 01:33N 01°17' E 104°03'4 0.7
2016-Sep-01 20:28N 01°20' E 104°05'0 0.0
2016-Sep-01 19:10N 01°20' E 104°05'0 0.0
2016-Sep-01 18:28N 01°20' E 104°05'0 0.0
2016-Aug-31 23:16N 01°20' E 104°05'0 0.0
2016-Aug-31 20:16N 01°20' E 104°05'0 0.0
2016-Aug-31 17:22N 01°20' E 104°05'0 0.0
2016-Aug-31 12:13N 01°20' E 104°05'0 0.0
2016-Aug-31 11:25N 01°20' E 104°05'0 0.0
2016-Aug-31 10:28N 01°20' E 104°05'0 0.0
2016-Aug-31 09:16N 01°20' E 104°05'0 0.0
2016-Aug-31 08:22N 01°20' E 104°05'0 0.0
2016-Aug-31 06:31N 01°20' E 104°05'0 0.0
2016-Aug-31 03:28N 01°20' E 104°05'  

Dump ship's entire track history